createdAt,value
2019-03-17T00:00:53.185Z,12.28
2019-03-17T00:15:52.570Z,12.00
2019-03-17T00:45:53.586Z,8.85
2019-03-17T01:00:51.508Z,9.55
2019-03-17T01:15:53.475Z,10.58
2019-03-17T01:30:51.822Z,9.88
2019-03-17T01:45:50.704Z,9.40
2019-03-17T02:15:50.721Z,9.80
2019-03-17T02:30:52.915Z,9.20
2019-03-17T02:45:53.076Z,10.32
2019-03-17T03:00:50.870Z,9.73
2019-03-17T03:15:52.898Z,7.97
2019-03-17T03:30:51.293Z,8.43
2019-03-17T03:45:51.232Z,8.20
2019-03-17T04:00:51.105Z,8.53
2019-03-17T04:15:50.994Z,8.70
2019-03-17T04:30:51.422Z,9.18
2019-03-17T04:45:51.418Z,9.28
2019-03-17T05:00:51.283Z,9.65
2019-03-17T05:15:51.089Z,9.58
2019-03-17T05:30:50.589Z,8.23
2019-03-17T05:45:51.481Z,9.00
2019-03-17T06:00:51.895Z,9.13
2019-03-17T06:15:53.833Z,9.73
2019-03-17T06:30:50.879Z,9.28
2019-03-17T06:45:50.695Z,9.33
2019-03-17T07:00:50.602Z,8.15
2019-03-17T07:15:50.580Z,7.55
2019-03-17T07:30:50.927Z,7.80
2019-03-17T07:45:52.991Z,6.90
2019-03-17T08:00:50.582Z,7.35
2019-03-17T08:15:50.732Z,8.88
2019-03-17T08:30:53.508Z,8.10
2019-03-17T08:45:51.665Z,8.43
2019-03-17T09:00:51.548Z,9.58
2019-03-17T09:15:50.913Z,9.03
2019-03-17T09:30:51.219Z,8.25
2019-03-17T09:45:53.331Z,7.10
2019-03-17T10:00:53.396Z,2.72
2019-03-17T10:15:51.091Z,3.30
2019-03-17T10:30:50.613Z,3.50
2019-03-17T10:45:50.643Z,2.80
2019-03-17T11:00:52.585Z,3.37
2019-03-17T11:15:53.904Z,3.10
2019-03-17T11:30:57.367Z,3.62
2019-03-17T11:45:52.446Z,3.25
2019-03-17T12:00:51.318Z,3.10
2019-03-17T12:15:51.021Z,3.60
2019-03-17T12:30:52.709Z,2.95
2019-03-17T12:45:51.431Z,3.40
2019-03-17T13:00:51.025Z,2.70
2019-03-17T13:15:53.152Z,3.40
2019-03-17T13:30:51.470Z,3.30
2019-03-17T13:45:51.214Z,2.72
2019-03-17T14:15:52.349Z,4.00
2019-03-17T14:30:50.761Z,5.37
2019-03-17T14:45:52.155Z,4.37
2019-03-17T15:00:51.711Z,4.33
2019-03-17T15:16:02.194Z,3.65
2019-03-17T15:31:09.705Z,3.90
2019-03-17T15:45:51.012Z,5.78
2019-03-17T16:00:55.390Z,5.62
2019-03-17T16:15:51.333Z,6.20
2019-03-17T16:30:51.141Z,6.60
2019-03-17T16:45:51.174Z,5.92
2019-03-17T17:00:51.082Z,7.80
2019-03-17T17:15:51.108Z,8.20
2019-03-17T17:30:50.360Z,8.60
2019-03-17T17:45:51.376Z,10.75
2019-03-17T18:00:52.179Z,12.80
2019-03-17T18:15:50.163Z,16.65
2019-03-17T18:30:55.773Z,18.02
2019-03-17T18:45:52.361Z,17.05
2019-03-17T19:00:53.914Z,12.55
2019-03-17T19:15:52.109Z,18.37
2019-03-17T19:30:54.088Z,18.73
2019-03-17T19:45:50.656Z,17.85
2019-03-17T20:00:53.072Z,19.82
2019-03-17T20:15:51.238Z,19.52
2019-03-17T20:30:54.110Z,19.45
2019-03-17T20:45:51.007Z,18.82
2019-03-17T21:00:53.527Z,18.67
2019-03-17T21:15:51.620Z,20.17
2019-03-17T21:30:53.013Z,20.55
2019-03-17T21:45:51.453Z,20.20
2019-03-17T22:00:53.907Z,21.62
2019-03-17T22:15:51.485Z,19.60
2019-03-17T22:30:51.300Z,20.90
2019-03-17T22:45:51.342Z,20.30
2019-03-17T23:00:51.592Z,16.15
2019-03-17T23:15:51.321Z,15.45
2019-03-17T23:30:51.516Z,14.90
2019-03-17T23:45:51.619Z,15.03
